sensor_id;sensor_type;location;lat;lon;timestamp;temperature;humidity
63313;DHT22;49442;45.640;13.812;2023-12-04T00:00:37;2.70;99.90
63313;DHT22;49442;45.640;13.812;2023-12-04T00:03:03;2.60;99.90
63313;DHT22;49442;45.640;13.812;2023-12-04T00:05:28;2.60;99.90
63313;DHT22;49442;45.640;13.812;2023-12-04T00:07:54;2.60;99.90
63313;DHT22;49442;45.640;13.812;2023-12-04T00:10:20;2.70;99.90
63313;DHT22;49442;45.640;13.812;2023-12-04T00:12:46;2.70;99.90
63313;DHT22;49442;45.640;13.812;2023-12-04T00:15:12;2.70;99.90
63313;DHT22;49442;45.640;13.812;2023-12-04T00:17:37;2.70;99.90
63313;DHT22;49442;45.640;13.812;2023-12-04T00:20:08;2.70;99.90
63313;DHT22;49442;45.640;13.812;2023-12-04T00:22:35;2.70;99.90
63313;DHT22;49442;45.640;13.812;2023-12-04T00:25:05;2.70;99.90
63313;DHT22;49442;45.640;13.812;2023-12-04T00:27:32;2.70;99.90
63313;DHT22;49442;45.640;13.812;2023-12-04T00:29:57;2.70;99.90
63313;DHT22;49442;45.640;13.812;2023-12-04T00:32:23;2.70;99.90
63313;DHT22;49442;45.640;13.812;2023-12-04T00:34:49;2.70;99.90
63313;DHT22;49442;45.640;13.812;2023-12-04T00:37:15;2.70;99.90
63313;DHT22;49442;45.640;13.812;2023-12-04T00:39:40;2.70;99.90
63313;DHT22;49442;45.640;13.812;2023-12-04T00:42:06;2.70;99.90
63313;DHT22;49442;45.640;13.812;2023-12-04T00:44:32;2.70;99.90
63313;DHT22;49442;45.640;13.812;2023-12-04T00:46:57;2.60;99.90
63313;DHT22;49442;45.640;13.812;2023-12-04T00:49:24;2.60;99.90
63313;DHT22;49442;45.640;13.812;2023-12-04T00:51:50;2.60;99.90
63313;DHT22;49442;45.640;13.812;2023-12-04T00:54:15;2.50;99.90
63313;DHT22;49442;45.640;13.812;2023-12-04T00:56:41;2.50;99.90
63313;DHT22;49442;45.640;13.812;2023-12-04T00:59:10;2.50;99.90
63313;DHT22;49442;45.640;13.812;2023-12-04T01:01:39;2.40;99.90
63313;DHT22;49442;45.640;13.812;2023-12-04T01:04:05;2.40;99.90
63313;DHT22;49442;45.640;13.812;2023-12-04T01:06:30;2.40;99.90
63313;DHT22;49442;45.640;13.812;2023-12-04T01:08:56;2.40;99.90
63313;DHT22;49442;45.640;13.812;2023-12-04T01:11:22;2.30;99.90
63313;DHT22;49442;45.640;13.812;2023-12-04T01:13:49;2.40;99.90
63313;DHT22;49442;45.640;13.812;2023-12-04T01:16:15;2.30;99.90
63313;DHT22;49442;45.640;13.812;2023-12-04T01:18:41;2.30;99.90
63313;DHT22;49442;45.640;13.812;2023-12-04T01:21:08;2.30;99.90
63313;DHT22;49442;45.640;13.812;2023-12-04T01:23:36;2.30;99.90
63313;DHT22;49442;45.640;13.812;2023-12-04T01:26:03;2.30;99.90
63313;DHT22;49442;45.640;13.812;2023-12-04T01:28:29;2.30;99.90
63313;DHT22;49442;45.640;13.812;2023-12-04T01:30:55;2.30;99.90
63313;DHT22;49442;45.640;13.812;2023-12-04T01:33:20;2.30;99.90
63313;DHT22;49442;45.640;13.812;2023-12-04T01:35:46;2.30;99.90
63313;DHT22;49442;45.640;13.812;2023-12-04T01:38:11;2.30;99.90
63313;DHT22;49442;45.640;13.812;2023-12-04T01:40:37;2.30;99.90
63313;DHT22;49442;45.640;13.812;2023-12-04T01:43:03;2.30;99.90
63313;DHT22;49442;45.640;13.812;2023-12-04T01:45:28;2.30;99.90
63313;DHT22;49442;45.640;13.812;2023-12-04T01:47:54;2.30;99.90
63313;DHT22;49442;45.640;13.812;2023-12-04T01:50:21;2.30;99.90
63313;DHT22;49442;45.640;13.812;2023-12-04T01:52:47;2.30;99.90
63313;DHT22;49442;45.640;13.812;2023-12-04T01:55:15;2.30;99.90
63313;DHT22;49442;45.640;13.812;2023-12-04T01:57:41;2.30;99.90
63313;DHT22;49442;45.640;13.812;2023-12-04T02:00:07;2.30;99.90
63313;DHT22;49442;45.640;13.812;2023-12-04T02:02:41;2.30;99.90
63313;DHT22;49442;45.640;13.812;2023-12-04T02:05:09;2.30;99.90
63313;DHT22;49442;45.640;13.812;2023-12-04T02:07:36;2.30;99.90
63313;DHT22;49442;45.640;13.812;2023-12-04T02:10:03;2.40;99.90
63313;DHT22;49442;45.640;13.812;2023-12-04T02:12:29;2.40;99.90
63313;DHT22;49442;45.640;13.812;2023-12-04T02:14:55;2.40;99.90
63313;DHT22;49442;45.640;13.812;2023-12-04T02:17:22;2.40;99.90
63313;DHT22;49442;45.640;13.812;2023-12-04T02:19:48;2.40;99.90
63313;DHT22;49442;45.640;13.812;2023-12-04T02:22:14;2.40;99.90
63313;DHT22;49442;45.640;13.812;2023-12-04T02:24:39;2.40;99.90
63313;DHT22;49442;45.640;13.812;2023-12-04T02:27:23;2.40;99.80
63313;DHT22;49442;45.640;13.812;2023-12-04T02:29:58;2.30;99.90
63313;DHT22;49442;45.640;13.812;2023-12-04T02:32:28;2.30;99.90
63313;DHT22;49442;45.640;13.812;2023-12-04T02:34:55;2.30;99.90
63313;DHT22;49442;45.640;13.812;2023-12-04T02:37:23;2.20;99.90
63313;DHT22;49442;45.640;13.812;2023-12-04T02:39:50;2.20;99.90
63313;DHT22;49442;45.640;13.812;2023-12-04T02:42:18;2.10;99.90
63313;DHT22;49442;45.640;13.812;2023-12-04T02:44:44;2.10;99.90
63313;DHT22;49442;45.640;13.812;2023-12-04T02:47:10;2.00;99.90
63313;DHT22;49442;45.640;13.812;2023-12-04T02:49:37;2.00;99.90
63313;DHT22;49442;45.640;13.812;2023-12-04T02:52:02;2.00;99.90
63313;DHT22;49442;45.640;13.812;2023-12-04T02:54:28;2.00;99.90
63313;DHT22;49442;45.640;13.812;2023-12-04T02:56:54;2.00;99.90
63313;DHT22;49442;45.640;13.812;2023-12-04T02:59:20;2.10;99.90
63313;DHT22;49442;45.640;13.812;2023-12-04T03:01:45;2.00;99.90
63313;DHT22;49442;45.640;13.812;2023-12-04T03:04:11;2.00;99.90
63313;DHT22;49442;45.640;13.812;2023-12-04T03:06:37;2.00;99.90
63313;DHT22;49442;45.640;13.812;2023-12-04T03:09:03;2.00;99.90
63313;DHT22;49442;45.640;13.812;2023-12-04T03:11:30;1.90;99.90
63313;DHT22;49442;45.640;13.812;2023-12-04T03:13:56;1.90;99.90
63313;DHT22;49442;45.640;13.812;2023-12-04T03:16:22;1.90;99.90
63313;DHT22;49442;45.640;13.812;2023-12-04T03:18:48;1.90;99.90
63313;DHT22;49442;45.640;13.812;2023-12-04T03:21:13;1.90;99.90
63313;DHT22;49442;45.640;13.812;2023-12-04T03:23:39;1.90;99.90
63313;DHT22;49442;45.640;13.812;2023-12-04T03:26:04;1.90;99.90
63313;DHT22;49442;45.640;13.812;2023-12-04T03:28:30;1.90;99.90
63313;DHT22;49442;45.640;13.812;2023-12-04T03:30:56;1.90;99.90
63313;DHT22;49442;45.640;13.812;2023-12-04T03:33:22;1.80;99.90
63313;DHT22;49442;45.640;13.812;2023-12-04T03:35:47;1.80;99.90
63313;DHT22;49442;45.640;13.812;2023-12-04T03:38:13;1.80;99.90
63313;DHT22;49442;45.640;13.812;2023-12-04T03:40:39;1.80;99.90
63313;DHT22;49442;45.640;13.812;2023-12-04T03:43:04;1.80;99.90
63313;DHT22;49442;45.640;13.812;2023-12-04T03:45:30;1.80;99.90
63313;DHT22;49442;45.640;13.812;2023-12-04T03:47:56;1.80;99.90
63313;DHT22;49442;45.640;13.812;2023-12-04T03:50:21;1.80;99.90
63313;DHT22;49442;45.640;13.812;2023-12-04T03:52:47;1.80;99.90
63313;DHT22;49442;45.640;13.812;2023-12-04T03:55:13;1.80;99.90
63313;DHT22;49442;45.640;13.812;2023-12-04T03:57:39;1.80;99.90
63313;DHT22;49442;45.640;13.812;2023-12-04T04:00:05;1.80;99.90
63313;DHT22;49442;45.640;13.812;2023-12-04T04:02:30;1.80;99.90
63313;DHT22;49442;45.640;13.812;2023-12-04T04:04:56;1.80;99.90
63313;DHT22;49442;45.640;13.812;2023-12-04T04:07:22;1.80;99.90
63313;DHT22;49442;45.640;13.812;2023-12-04T04:09:47;1.80;99.90
63313;DHT22;49442;45.640;13.812;2023-12-04T04:12:13;1.70;99.90
63313;DHT22;49442;45.640;13.812;2023-12-04T04:14:39;1.70;99.90
63313;DHT22;49442;45.640;13.812;2023-12-04T04:17:05;1.60;99.90
63313;DHT22;49442;45.640;13.812;2023-12-04T04:19:30;1.60;99.90
63313;DHT22;49442;45.640;13.812;2023-12-04T04:21:56;1.70;99.90
63313;DHT22;49442;45.640;13.812;2023-12-04T04:24:22;1.60;99.90
63313;DHT22;49442;45.640;13.812;2023-12-04T04:26:47;1.70;99.90
63313;DHT22;49442;45.640;13.812;2023-12-04T04:29:13;1.70;99.90
63313;DHT22;49442;45.640;13.812;2023-12-04T04:31:39;1.70;99.90
63313;DHT22;49442;45.640;13.812;2023-12-04T04:34:04;1.70;99.90
63313;DHT22;49442;45.640;13.812;2023-12-04T04:36:30;1.70;99.90
63313;DHT22;49442;45.640;13.812;2023-12-04T04:38:55;1.60;99.90
63313;DHT22;49442;45.640;13.812;2023-12-04T04:41:21;1.60;99.90
63313;DHT22;49442;45.640;13.812;2023-12-04T04:43:47;1.50;99.90
63313;DHT22;49442;45.640;13.812;2023-12-04T04:46:13;1.50;99.90
63313;DHT22;49442;45.640;13.812;2023-12-04T04:48:39;1.60;99.90
63313;DHT22;49442;45.640;13.812;2023-12-04T04:51:05;1.60;99.90
63313;DHT22;49442;45.640;13.812;2023-12-04T04:53:31;1.60;99.90
63313;DHT22;49442;45.640;13.812;2023-12-04T04:55:56;1.60;99.90
63313;DHT22;49442;45.640;13.812;2023-12-04T04:58:22;1.60;99.90
63313;DHT22;49442;45.640;13.812;2023-12-04T05:00:48;1.60;99.90
63313;DHT22;49442;45.640;13.812;2023-12-04T05:03:14;1.60;99.90
63313;DHT22;49442;45.640;13.812;2023-12-04T05:05:40;1.60;99.90
63313;DHT22;49442;45.640;13.812;2023-12-04T05:08:05;1.60;99.90
63313;DHT22;49442;45.640;13.812;2023-12-04T05:10:31;1.60;99.90
63313;DHT22;49442;45.640;13.812;2023-12-04T05:12:57;1.60;99.90
63313;DHT22;49442;45.640;13.812;2023-12-04T05:15:22;1.60;99.90
63313;DHT22;49442;45.640;13.812;2023-12-04T05:17:48;1.60;99.90
63313;DHT22;49442;45.640;13.812;2023-12-04T05:20:14;1.60;99.90
63313;DHT22;49442;45.640;13.812;2023-12-04T05:22:40;1.60;99.90
63313;DHT22;49442;45.640;13.812;2023-12-04T05:25:06;1.60;99.90
63313;DHT22;49442;45.640;13.812;2023-12-04T05:27:32;1.60;99.90
63313;DHT22;49442;45.640;13.812;2023-12-04T05:29:57;1.60;99.90
63313;DHT22;49442;45.640;13.812;2023-12-04T05:32:23;1.60;99.90
63313;DHT22;49442;45.640;13.812;2023-12-04T05:34:49;1.50;99.90
63313;DHT22;49442;45.640;13.812;2023-12-04T05:37:14;1.50;99.90
63313;DHT22;49442;45.640;13.812;2023-12-04T05:39:41;1.50;99.90
63313;DHT22;49442;45.640;13.812;2023-12-04T05:42:07;1.50;99.90
63313;DHT22;49442;45.640;13.812;2023-12-04T05:44:33;1.40;99.90
63313;DHT22;49442;45.640;13.812;2023-12-04T05:46:59;1.40;99.90
63313;DHT22;49442;45.640;13.812;2023-12-04T05:49:25;1.40;99.90
63313;DHT22;49442;45.640;13.812;2023-12-04T05:51:51;1.40;99.90
63313;DHT22;49442;45.640;13.812;2023-12-04T05:54:16;1.40;99.90
63313;DHT22;49442;45.640;13.812;2023-12-04T05:56:42;1.40;99.90
63313;DHT22;49442;45.640;13.812;2023-12-04T05:59:08;1.40;99.90
63313;DHT22;49442;45.640;13.812;2023-12-04T06:01:34;1.40;99.90
63313;DHT22;49442;45.640;13.812;2023-12-04T06:03:59;1.40;99.90
63313;DHT22;49442;45.640;13.812;2023-12-04T06:06:25;1.30;99.90
63313;DHT22;49442;45.640;13.812;2023-12-04T06:08:52;1.40;99.90
63313;DHT22;49442;45.640;13.812;2023-12-04T06:11:18;1.40;99.90
63313;DHT22;49442;45.640;13.812;2023-12-04T06:13:43;1.40;99.90
63313;DHT22;49442;45.640;13.812;2023-12-04T06:16:09;1.50;99.90
63313;DHT22;49442;45.640;13.812;2023-12-04T06:18:35;1.50;99.90
63313;DHT22;49442;45.640;13.812;2023-12-04T06:21:01;1.50;99.90
63313;DHT22;49442;45.640;13.812;2023-12-04T06:23:27;1.50;99.90
63313;DHT22;49442;45.640;13.812;2023-12-04T06:25:53;1.50;99.90
63313;DHT22;49442;45.640;13.812;2023-12-04T06:28:18;1.60;99.90
63313;DHT22;49442;45.640;13.812;2023-12-04T06:30:44;1.60;99.90
63313;DHT22;49442;45.640;13.812;2023-12-04T06:33:10;1.50;99.90
63313;DHT22;49442;45.640;13.812;2023-12-04T06:35:38;1.60;99.90
63313;DHT22;49442;45.640;13.812;2023-12-04T06:38:07;1.60;99.90
63313;DHT22;49442;45.640;13.812;2023-12-04T06:40:34;1.60;99.90
63313;DHT22;49442;45.640;13.812;2023-12-04T06:43:00;1.50;99.90
63313;DHT22;49442;45.640;13.812;2023-12-04T06:45:26;1.50;99.90
63313;DHT22;49442;45.640;13.812;2023-12-04T06:47:53;1.50;99.90
63313;DHT22;49442;45.640;13.812;2023-12-04T06:50:19;1.50;99.90
63313;DHT22;49442;45.640;13.812;2023-12-04T06:52:45;1.60;99.90
63313;DHT22;49442;45.640;13.812;2023-12-04T06:55:12;1.50;99.90
63313;DHT22;49442;45.640;13.812;2023-12-04T06:57:38;1.60;99.90
63313;DHT22;49442;45.640;13.812;2023-12-04T07:00:04;1.60;99.90
63313;DHT22;49442;45.640;13.812;2023-12-04T07:02:32;1.70;99.90
63313;DHT22;49442;45.640;13.812;2023-12-04T07:04:57;1.60;99.90
63313;DHT22;49442;45.640;13.812;2023-12-04T07:07:23;1.70;99.90
63313;DHT22;49442;45.640;13.812;2023-12-04T07:09:49;1.70;99.90
63313;DHT22;49442;45.640;13.812;2023-12-04T07:12:14;1.80;99.90
63313;DHT22;49442;45.640;13.812;2023-12-04T07:14:40;1.90;99.90
63313;DHT22;49442;45.640;13.812;2023-12-04T07:17:06;1.90;99.90
63313;DHT22;49442;45.640;13.812;2023-12-04T07:19:31;1.90;99.90
63313;DHT22;49442;45.640;13.812;2023-12-04T07:21:57;2.00;99.90
63313;DHT22;49442;45.640;13.812;2023-12-04T07:24:23;2.00;99.90
63313;DHT22;49442;45.640;13.812;2023-12-04T07:26:48;2.10;99.90
63313;DHT22;49442;45.640;13.812;2023-12-04T07:29:14;2.10;99.90
63313;DHT22;49442;45.640;13.812;2023-12-04T07:31:41;2.20;99.90
63313;DHT22;49442;45.640;13.812;2023-12-04T07:34:07;2.20;99.90
63313;DHT22;49442;45.640;13.812;2023-12-04T07:36:33;2.30;99.90
63313;DHT22;49442;45.640;13.812;2023-12-04T07:38:58;2.40;99.90
63313;DHT22;49442;45.640;13.812;2023-12-04T07:41:24;2.50;99.90
63313;DHT22;49442;45.640;13.812;2023-12-04T07:43:50;2.50;99.90
63313;DHT22;49442;45.640;13.812;2023-12-04T07:46:15;2.60;99.90
63313;DHT22;49442;45.640;13.812;2023-12-04T07:48:41;2.80;99.90
63313;DHT22;49442;45.640;13.812;2023-12-04T07:51:09;2.90;99.90
63313;DHT22;49442;45.640;13.812;2023-12-04T07:53:34;3.10;99.90
63313;DHT22;49442;45.640;13.812;2023-12-04T07:56:03;3.30;99.90
63313;DHT22;49442;45.640;13.812;2023-12-04T07:58:30;3.50;99.90
63313;DHT22;49442;45.640;13.812;2023-12-04T08:00:56;3.60;99.90
63313;DHT22;49442;45.640;13.812;2023-12-04T08:03:22;3.60;99.90
63313;DHT22;49442;45.640;13.812;2023-12-04T08:05:50;3.60;99.90
63313;DHT22;49442;45.640;13.812;2023-12-04T08:08:16;3.80;99.90
63313;DHT22;49442;45.640;13.812;2023-12-04T08:10:42;4.00;99.90
63313;DHT22;49442;45.640;13.812;2023-12-04T08:13:07;4.30;99.90
63313;DHT22;49442;45.640;13.812;2023-12-04T08:15:33;4.70;99.90
63313;DHT22;49442;45.640;13.812;2023-12-04T08:17:59;5.00;99.90
63313;DHT22;49442;45.640;13.812;2023-12-04T08:20:26;5.30;99.90
63313;DHT22;49442;45.640;13.812;2023-12-04T08:22:51;5.60;99.90
63313;DHT22;49442;45.640;13.812;2023-12-04T08:25:17;5.70;99.90
63313;DHT22;49442;45.640;13.812;2023-12-04T08:27:43;5.90;99.90
63313;DHT22;49442;45.640;13.812;2023-12-04T08:30:09;6.00;99.60
63313;DHT22;49442;45.640;13.812;2023-12-04T08:32:35;6.70;99.90
63313;DHT22;49442;45.640;13.812;2023-12-04T08:35:00;7.80;99.90
63313;DHT22;49442;45.640;13.812;2023-12-04T08:37:26;9.70;98.00
63313;DHT22;49442;45.640;13.812;2023-12-04T08:39:52;9.80;95.80
63313;DHT22;49442;45.640;13.812;2023-12-04T08:42:18;9.50;95.70
63313;DHT22;49442;45.640;13.812;2023-12-04T08:44:44;10.10;94.90
63313;DHT22;49442;45.640;13.812;2023-12-04T08:47:13;10.40;94.40
63313;DHT22;49442;45.640;13.812;2023-12-04T08:49:40;9.60;94.50
63313;DHT22;49442;45.640;13.812;2023-12-04T08:52:06;9.20;95.20
63313;DHT22;49442;45.640;13.812;2023-12-04T08:54:32;8.80;96.30
63313;DHT22;49442;45.640;13.812;2023-12-04T08:56:58;8.40;95.50
63313;DHT22;49442;45.640;13.812;2023-12-04T08:59:24;7.90;95.30
63313;DHT22;49442;45.640;13.812;2023-12-04T09:01:49;7.70;98.30
63313;DHT22;49442;45.640;13.812;2023-12-04T09:04:15;7.40;99.10
63313;DHT22;49442;45.640;13.812;2023-12-04T09:06:41;7.10;99.10
63313;DHT22;49442;45.640;13.812;2023-12-04T09:09:06;6.90;99.70
63313;DHT22;49442;45.640;13.812;2023-12-04T09:11:33;6.80;99.90
63313;DHT22;49442;45.640;13.812;2023-12-04T09:13:58;6.80;99.90
63313;DHT22;49442;45.640;13.812;2023-12-04T09:16:24;6.80;99.90
63313;DHT22;49442;45.640;13.812;2023-12-04T09:18:50;6.70;99.90
63313;DHT22;49442;45.640;13.812;2023-12-04T09:21:15;6.70;99.50
63313;DHT22;49442;45.640;13.812;2023-12-04T09:23:42;6.70;99.80
63313;DHT22;49442;45.640;13.812;2023-12-04T09:26:07;6.50;99.80
63313;DHT22;49442;45.640;13.812;2023-12-04T09:28:35;6.50;99.90
63313;DHT22;49442;45.640;13.812;2023-12-04T09:31:01;6.40;99.90
63313;DHT22;49442;45.640;13.812;2023-12-04T09:33:27;6.30;99.90
63313;DHT22;49442;45.640;13.812;2023-12-04T09:35:53;6.30;99.90
63313;DHT22;49442;45.640;13.812;2023-12-04T09:38:18;6.30;99.90
63313;DHT22;49442;45.640;13.812;2023-12-04T09:40:44;6.30;99.90
63313;DHT22;49442;45.640;13.812;2023-12-04T09:43:10;6.30;98.20
63313;DHT22;49442;45.640;13.812;2023-12-04T09:45:37;6.30;97.20
63313;DHT22;49442;45.640;13.812;2023-12-04T09:48:05;6.30;99.60
63313;DHT22;49442;45.640;13.812;2023-12-04T09:50:31;6.30;99.90
63313;DHT22;49442;45.640;13.812;2023-12-04T09:53:00;6.30;99.90
63313;DHT22;49442;45.640;13.812;2023-12-04T09:55:27;6.40;99.60
63313;DHT22;49442;45.640;13.812;2023-12-04T09:57:52;6.30;97.70
63313;DHT22;49442;45.640;13.812;2023-12-04T10:00:19;6.30;98.30
63313;DHT22;49442;45.640;13.812;2023-12-04T10:02:46;6.40;99.90
63313;DHT22;49442;45.640;13.812;2023-12-04T10:05:12;6.40;98.10
63313;DHT22;49442;45.640;13.812;2023-12-04T10:07:37;6.50;97.80
63313;DHT22;49442;45.640;13.812;2023-12-04T10:10:04;6.50;98.60
63313;DHT22;49442;45.640;13.812;2023-12-04T10:12:35;6.60;98.40
63313;DHT22;49442;45.640;13.812;2023-12-04T10:15:05;6.70;95.40
63313;DHT22;49442;45.640;13.812;2023-12-04T10:17:40;6.70;96.00
63313;DHT22;49442;45.640;13.812;2023-12-04T10:20:13;6.80;96.60
63313;DHT22;49442;45.640;13.812;2023-12-04T10:23:00;6.80;95.10
63313;DHT22;49442;45.640;13.812;2023-12-04T10:25:28;6.80;94.90
63313;DHT22;49442;45.640;13.812;2023-12-04T10:28:07;6.70;95.60
63313;DHT22;49442;45.640;13.812;2023-12-04T10:30:33;6.60;94.30
63313;DHT22;49442;45.640;13.812;2023-12-04T10:33:02;6.60;92.70
63313;DHT22;49442;45.640;13.812;2023-12-04T10:35:30;6.60;94.70
63313;DHT22;49442;45.640;13.812;2023-12-04T10:37:57;6.50;96.40
63313;DHT22;49442;45.640;13.812;2023-12-04T10:40:27;6.60;94.00
63313;DHT22;49442;45.640;13.812;2023-12-04T10:45:40;6.60;95.80
63313;DHT22;49442;45.640;13.812;2023-12-04T10:48:07;6.60;95.90
63313;DHT22;49442;45.640;13.812;2023-12-04T10:50:34;6.60;93.70
63313;DHT22;49442;45.640;13.812;2023-12-04T10:53:07;6.70;96.70
63313;DHT22;49442;45.640;13.812;2023-12-04T10:55:35;6.70;93.50
63313;DHT22;49442;45.640;13.812;2023-12-04T10:58:02;6.70;95.40
63313;DHT22;49442;45.640;13.812;2023-12-04T11:00:33;6.80;93.80
63313;DHT22;49442;45.640;13.812;2023-12-04T11:03:09;6.70;94.60
63313;DHT22;49442;45.640;13.812;2023-12-04T11:05:38;6.60;93.40
63313;DHT22;49442;45.640;13.812;2023-12-04T11:08:07;6.50;92.10
63313;DHT22;49442;45.640;13.812;2023-12-04T11:10:33;6.50;92.70
63313;DHT22;49442;45.640;13.812;2023-12-04T11:13:05;6.60;91.80
63313;DHT22;49442;45.640;13.812;2023-12-04T11:15:34;6.70;95.60
63313;DHT22;49442;45.640;13.812;2023-12-04T11:18:00;6.80;92.60
63313;DHT22;49442;45.640;13.812;2023-12-04T11:20:32;6.90;94.60
63313;DHT22;49442;45.640;13.812;2023-12-04T11:22:58;7.10;95.70
63313;DHT22;49442;45.640;13.812;2023-12-04T11:25:25;7.10;94.10
63313;DHT22;49442;45.640;13.812;2023-12-04T11:27:52;7.30;93.00
63313;DHT22;49442;45.640;13.812;2023-12-04T11:30:19;7.40;94.50
63313;DHT22;49442;45.640;13.812;2023-12-04T11:32:46;7.60;95.50
63313;DHT22;49442;45.640;13.812;2023-12-04T11:35:16;7.70;92.00
63313;DHT22;49442;45.640;13.812;2023-12-04T11:37:44;7.80;92.50
63313;DHT22;49442;45.640;13.812;2023-12-04T11:40:16;7.70;87.40
63313;DHT22;49442;45.640;13.812;2023-12-04T11:42:42;7.70;89.50
63313;DHT22;49442;45.640;13.812;2023-12-04T11:45:09;7.90;92.10
63313;DHT22;49442;45.640;13.812;2023-12-04T11:48:01;8.00;89.80
63313;DHT22;49442;45.640;13.812;2023-12-04T11:50:26;8.10;93.10
63313;DHT22;49442;45.640;13.812;2023-12-04T11:52:53;8.20;95.40
63313;DHT22;49442;45.640;13.812;2023-12-04T11:55:25;8.80;91.50
63313;DHT22;49442;45.640;13.812;2023-12-04T11:57:54;9.20;92.00
63313;DHT22;49442;45.640;13.812;2023-12-04T12:00:21;9.00;90.40
63313;DHT22;49442;45.640;13.812;2023-12-04T12:02:48;8.90;91.90
63313;DHT22;49442;45.640;13.812;2023-12-04T12:05:16;8.50;88.50
63313;DHT22;49442;45.640;13.812;2023-12-04T12:07:42;8.30;90.10
63313;DHT22;49442;45.640;13.812;2023-12-04T12:10:08;8.00;91.40
63313;DHT22;49442;45.640;13.812;2023-12-04T12:12:35;7.90;94.50
63313;DHT22;49442;45.640;13.812;2023-12-04T12:15:02;7.70;94.80
63313;DHT22;49442;45.640;13.812;2023-12-04T12:17:27;7.60;94.90
63313;DHT22;49442;45.640;13.812;2023-12-04T12:19:54;7.50;93.90
63313;DHT22;49442;45.640;13.812;2023-12-04T12:22:23;7.40;93.00
63313;DHT22;49442;45.640;13.812;2023-12-04T12:24:49;7.20;92.20
63313;DHT22;49442;45.640;13.812;2023-12-04T12:27:15;7.20;96.90
63313;DHT22;49442;45.640;13.812;2023-12-04T12:29:41;7.10;96.90
63313;DHT22;49442;45.640;13.812;2023-12-04T12:32:07;7.10;95.80
63313;DHT22;49442;45.640;13.812;2023-12-04T12:34:32;7.00;96.90
63313;DHT22;49442;45.640;13.812;2023-12-04T12:37:04;7.00;99.50
63313;DHT22;49442;45.640;13.812;2023-12-04T12:39:31;6.90;98.80
63313;DHT22;49442;45.640;13.812;2023-12-04T12:41:57;6.90;99.90
63313;DHT22;49442;45.640;13.812;2023-12-04T12:44:23;6.80;97.40
63313;DHT22;49442;45.640;13.812;2023-12-04T12:46:49;6.70;96.90
63313;DHT22;49442;45.640;13.812;2023-12-04T12:49:18;6.60;99.30
63313;DHT22;49442;45.640;13.812;2023-12-04T12:51:46;6.60;99.80
63313;DHT22;49442;45.640;13.812;2023-12-04T12:54:13;6.50;99.90
63313;DHT22;49442;45.640;13.812;2023-12-04T12:56:39;6.50;99.90
63313;DHT22;49442;45.640;13.812;2023-12-04T12:59:05;6.50;99.90
63313;DHT22;49442;45.640;13.812;2023-12-04T13:01:32;6.40;99.90
63313;DHT22;49442;45.640;13.812;2023-12-04T13:03:58;6.40;99.90
63313;DHT22;49442;45.640;13.812;2023-12-04T13:06:25;6.30;99.90
63313;DHT22;49442;45.640;13.812;2023-12-04T13:08:51;6.30;99.90
63313;DHT22;49442;45.640;13.812;2023-12-04T13:11:16;6.30;99.90
63313;DHT22;49442;45.640;13.812;2023-12-04T13:13:43;6.30;99.90
63313;DHT22;49442;45.640;13.812;2023-12-04T13:16:09;6.40;99.90
63313;DHT22;49442;45.640;13.812;2023-12-04T13:18:35;6.50;99.90
63313;DHT22;49442;45.640;13.812;2023-12-04T13:21:02;6.50;99.90
63313;DHT22;49442;45.640;13.812;2023-12-04T13:23:27;6.60;98.20
63313;DHT22;49442;45.640;13.812;2023-12-04T13:25:53;6.60;97.90
63313;DHT22;49442;45.640;13.812;2023-12-04T13:28:21;6.60;97.70
63313;DHT22;49442;45.640;13.812;2023-12-04T13:30:47;6.70;99.90
63313;DHT22;49442;45.640;13.812;2023-12-04T13:33:13;6.70;99.00
63313;DHT22;49442;45.640;13.812;2023-12-04T13:35:39;6.70;99.90
63313;DHT22;49442;45.640;13.812;2023-12-04T13:38:05;6.60;99.90
63313;DHT22;49442;45.640;13.812;2023-12-04T13:40:39;6.60;99.90
63313;DHT22;49442;45.640;13.812;2023-12-04T13:43:05;6.50;99.90
63313;DHT22;49442;45.640;13.812;2023-12-04T13:46:03;6.60;99.90
63313;DHT22;49442;45.640;13.812;2023-12-04T13:48:34;6.50;99.90
63313;DHT22;49442;45.640;13.812;2023-12-04T13:51:00;6.50;99.90
63313;DHT22;49442;45.640;13.812;2023-12-04T13:53:26;6.40;99.90
63313;DHT22;49442;45.640;13.812;2023-12-04T13:55:55;6.40;99.90
63313;DHT22;49442;45.640;13.812;2023-12-04T13:58:27;6.40;99.90
63313;DHT22;49442;45.640;13.812;2023-12-04T14:01:05;6.40;99.90
63313;DHT22;49442;45.640;13.812;2023-12-04T14:03:43;6.40;99.90
63313;DHT22;49442;45.640;13.812;2023-12-04T14:06:09;6.40;99.90
63313;DHT22;49442;45.640;13.812;2023-12-04T14:08:35;6.40;99.90
63313;DHT22;49442;45.640;13.812;2023-12-04T14:11:02;6.30;99.90
63313;DHT22;49442;45.640;13.812;2023-12-04T14:13:28;6.30;99.90
63313;DHT22;49442;45.640;13.812;2023-12-04T14:15:54;6.20;99.90
63313;DHT22;49442;45.640;13.812;2023-12-04T14:18:20;6.20;99.90
63313;DHT22;49442;45.640;13.812;2023-12-04T14:20:46;6.20;99.90
63313;DHT22;49442;45.640;13.812;2023-12-04T14:23:13;6.20;99.90
63313;DHT22;49442;45.640;13.812;2023-12-04T14:25:40;6.20;99.90
63313;DHT22;49442;45.640;13.812;2023-12-04T14:28:06;6.10;99.90
63313;DHT22;49442;45.640;13.812;2023-12-04T14:30:32;6.10;99.90
63313;DHT22;49442;45.640;13.812;2023-12-04T14:32:59;6.00;99.90
63313;DHT22;49442;45.640;13.812;2023-12-04T14:35:24;6.00;99.90
63313;DHT22;49442;45.640;13.812;2023-12-04T14:37:50;5.90;99.90
63313;DHT22;49442;45.640;13.812;2023-12-04T14:40:16;5.90;99.90
63313;DHT22;49442;45.640;13.812;2023-12-04T14:42:43;5.90;99.90
63313;DHT22;49442;45.640;13.812;2023-12-04T14:45:09;5.90;99.90
63313;DHT22;49442;45.640;13.812;2023-12-04T14:47:35;5.80;99.90
63313;DHT22;49442;45.640;13.812;2023-12-04T14:50:02;5.80;99.90
63313;DHT22;49442;45.640;13.812;2023-12-04T14:52:28;5.70;99.90
63313;DHT22;49442;45.640;13.812;2023-12-04T14:54:55;5.70;99.90
63313;DHT22;49442;45.640;13.812;2023-12-04T14:57:36;5.60;99.90
63313;DHT22;49442;45.640;13.812;2023-12-04T15:00:05;5.60;99.90
63313;DHT22;49442;45.640;13.812;2023-12-04T15:02:49;5.60;99.90
63313;DHT22;49442;45.640;13.812;2023-12-04T15:05:34;5.50;99.90
63313;DHT22;49442;45.640;13.812;2023-12-04T15:08:06;5.50;99.90
63313;DHT22;49442;45.640;13.812;2023-12-04T15:10:32;5.50;99.90
63313;DHT22;49442;45.640;13.812;2023-12-04T15:13:04;5.40;99.90
63313;DHT22;49442;45.640;13.812;2023-12-04T15:15:52;5.40;99.90
63313;DHT22;49442;45.640;13.812;2023-12-04T15:18:36;5.30;99.90
63313;DHT22;49442;45.640;13.812;2023-12-04T15:21:08;5.30;99.90
63313;DHT22;49442;45.640;13.812;2023-12-04T15:23:34;5.30;99.90
63313;DHT22;49442;45.640;13.812;2023-12-04T15:26:00;5.30;99.90
63313;DHT22;49442;45.640;13.812;2023-12-04T15:28:27;5.20;99.90
63313;DHT22;49442;45.640;13.812;2023-12-04T15:30:53;5.20;99.90